createdAt,value
2022-10-12T00:01:19.296Z,1.67
2022-10-12T00:03:47.796Z,1.65
2022-10-12T00:06:21.805Z,1.38
2022-10-12T00:08:53.132Z,2.08
2022-10-12T00:11:25.263Z,2.13
2022-10-12T00:13:55.105Z,1.52
2022-10-12T00:16:25.122Z,1.60
2022-10-12T00:18:58.190Z,1.40
2022-10-12T00:21:28.403Z,1.73
2022-10-12T00:24:01.634Z,1.80
2022-10-12T00:29:03.645Z,1.50
2022-10-12T00:31:33.241Z,1.55
2022-10-12T00:34:03.466Z,1.77
2022-10-12T00:36:37.103Z,1.65
2022-10-12T00:39:08.002Z,1.73
2022-10-12T00:41:40.688Z,1.45
2022-10-12T00:44:37.189Z,2.25
2022-10-12T00:47:39.340Z,1.63
2022-10-12T00:50:22.890Z,1.75
2022-10-12T00:53:19.083Z,1.48
2022-10-12T00:55:54.455Z,1.33
2022-10-12T00:58:23.950Z,1.30
2022-10-12T01:00:52.997Z,1.40
2022-10-12T01:03:24.131Z,1.50
2022-10-12T01:05:52.795Z,1.50
2022-10-12T01:08:21.759Z,1.52
2022-10-12T01:10:53.083Z,1.50
2022-10-12T01:13:21.627Z,1.75
2022-10-12T01:16:01.128Z,1.30
2022-10-12T01:18:37.952Z,1.90
2022-10-12T01:21:09.756Z,1.20
2022-10-12T01:23:57.195Z,1.55
2022-10-12T01:26:43.107Z,1.77
2022-10-12T01:29:42.297Z,1.60
2022-10-12T01:32:54.376Z,1.52
2022-10-12T01:35:30.442Z,1.50
2022-10-12T01:38:23.499Z,1.30
2022-10-12T01:41:11.896Z,1.48
2022-10-12T01:43:43.241Z,1.45
2022-10-12T01:46:14.503Z,1.48
2022-10-12T01:48:47.424Z,1.40
2022-10-12T01:51:24.107Z,1.50
2022-10-12T01:54:05.996Z,1.20
2022-10-12T01:56:46.727Z,1.10
2022-10-12T01:59:45.729Z,1.50
2022-10-12T02:02:46.227Z,1.17
2022-10-12T02:05:42.882Z,1.10
2022-10-12T02:08:28.196Z,1.45
2022-10-12T02:11:05.395Z,1.33
2022-10-12T02:13:38.539Z,1.20
2022-10-12T02:16:12.547Z,1.08
2022-10-12T02:18:45.872Z,1.10
2022-10-12T02:23:48.211Z,1.23
2022-10-12T02:26:17.167Z,1.50
2022-10-12T02:28:47.144Z,1.50
2022-10-12T02:31:57.542Z,1.50
2022-10-12T02:35:07.262Z,1.60
2022-10-12T02:37:46.977Z,1.00
2022-10-12T02:40:27.663Z,1.42
2022-10-12T02:43:11.685Z,1.48
2022-10-12T02:45:47.485Z,1.38
2022-10-12T02:48:21.580Z,1.50
2022-10-12T02:50:53.293Z,1.33
2022-10-12T02:53:23.912Z,1.30
2022-10-12T02:56:01.360Z,1.00
2022-10-12T02:58:29.940Z,1.00
2022-10-12T03:00:58.586Z,1.15
2022-10-12T03:03:27.127Z,1.55
2022-10-12T03:05:55.726Z,1.15
2022-10-12T03:08:24.260Z,1.20
2022-10-12T03:10:52.770Z,1.20
2022-10-12T03:13:21.263Z,1.30
2022-10-12T03:15:49.605Z,1.33
2022-10-12T03:18:18.082Z,1.20
2022-10-12T03:20:50.419Z,1.20
2022-10-12T03:23:19.180Z,1.10
2022-10-12T03:25:47.688Z,1.65
2022-10-12T03:28:16.264Z,1.27
2022-10-12T03:30:45.553Z,1.42
2022-10-12T03:33:14.465Z,1.20
2022-10-12T03:35:46.618Z,1.38
2022-10-12T03:38:16.662Z,0.93
2022-10-12T03:40:45.905Z,0.90
2022-10-12T03:43:15.487Z,1.35
2022-10-12T03:45:43.664Z,1.10
2022-10-12T03:48:12.160Z,1.40
2022-10-12T03:50:41.508Z,1.85
2022-10-12T03:53:09.968Z,1.25
2022-10-12T03:55:38.459Z,1.33
2022-10-12T03:58:07.011Z,1.00
2022-10-12T04:00:35.496Z,1.23
2022-10-12T04:03:03.977Z,1.30
2022-10-12T04:05:33.672Z,1.20
2022-10-12T04:08:02.151Z,1.15
2022-10-12T04:10:30.691Z,1.23
2022-10-12T04:12:59.393Z,1.08
2022-10-12T04:15:27.953Z,1.20
2022-10-12T04:17:56.433Z,1.10
2022-10-12T04:20:25.065Z,1.17
2022-10-12T04:22:53.972Z,1.10
2022-10-12T04:25:24.388Z,1.00
2022-10-12T04:27:54.950Z,1.40
2022-10-12T04:30:23.450Z,1.30
2022-10-12T04:32:53.558Z,1.50
2022-10-12T04:35:22.096Z,1.38
2022-10-12T04:37:50.242Z,1.33
2022-10-12T04:40:18.866Z,1.05
2022-10-12T04:42:47.406Z,1.20
2022-10-12T04:45:16.097Z,1.30
2022-10-12T04:47:44.545Z,1.30
2022-10-12T04:50:13.170Z,1.38
2022-10-12T04:52:41.728Z,1.02
2022-10-12T04:55:10.535Z,1.00
2022-10-12T04:57:39.335Z,1.17
2022-10-12T05:00:09.585Z,1.38
2022-10-12T05:02:38.049Z,1.30
2022-10-12T05:05:06.879Z,1.13
2022-10-12T05:07:35.909Z,1.25
2022-10-12T05:10:04.751Z,1.02
2022-10-12T05:12:33.287Z,1.45
2022-10-12T05:15:01.947Z,1.20
2022-10-12T05:17:30.512Z,1.15
2022-10-12T05:19:59.109Z,1.48
2022-10-12T05:22:27.912Z,1.05
2022-10-12T05:24:56.408Z,1.20
2022-10-12T05:27:24.955Z,1.40
2022-10-12T05:29:53.430Z,1.05
2022-10-12T05:32:21.853Z,1.20
2022-10-12T05:34:50.456Z,1.42
2022-10-12T05:37:18.932Z,1.10
2022-10-12T05:39:47.949Z,1.13
2022-10-12T05:42:16.678Z,1.20
2022-10-12T05:44:45.398Z,1.10
2022-10-12T05:47:13.925Z,1.67
2022-10-12T05:49:42.494Z,1.50
2022-10-12T05:52:10.940Z,1.10
2022-10-12T05:54:39.611Z,1.15
2022-10-12T05:57:08.257Z,1.05
2022-10-12T05:59:36.845Z,1.10
2022-10-12T06:02:05.551Z,1.30
2022-10-12T06:04:34.076Z,1.30
2022-10-12T06:07:02.601Z,1.10
2022-10-12T06:09:31.133Z,1.10
2022-10-12T06:11:59.206Z,1.17
2022-10-12T06:14:27.649Z,1.42
2022-10-12T06:16:56.146Z,1.27
2022-10-12T06:19:24.647Z,1.48
2022-10-12T06:21:53.264Z,1.00
2022-10-12T06:24:21.691Z,1.30
2022-10-12T06:26:50.237Z,0.90
2022-10-12T06:29:18.904Z,1.00
2022-10-12T06:31:51.462Z,1.13
2022-10-12T06:34:20.557Z,0.85
2022-10-12T06:36:49.587Z,1.25
2022-10-12T06:39:18.129Z,1.35
2022-10-12T06:41:46.737Z,1.10
2022-10-12T06:44:15.527Z,1.40
2022-10-12T06:46:43.937Z,1.20
2022-10-12T06:49:12.494Z,1.30
2022-10-12T06:51:40.970Z,1.13
2022-10-12T06:54:09.449Z,1.63
2022-10-12T06:56:39.532Z,1.27
2022-10-12T06:59:08.267Z,0.95
2022-10-12T07:01:36.874Z,1.10
2022-10-12T07:04:05.547Z,1.05
2022-10-12T07:06:35.947Z,1.30
2022-10-12T07:09:04.579Z,1.15
2022-10-12T07:11:33.195Z,1.20
2022-10-12T07:14:01.962Z,0.90
2022-10-12T07:16:30.492Z,1.42
2022-10-12T07:18:59.024Z,1.05
2022-10-12T07:21:27.758Z,1.00
2022-10-12T07:23:56.873Z,1.10
2022-10-12T07:26:25.343Z,0.90
2022-10-12T07:28:53.945Z,1.00
2022-10-12T07:31:22.499Z,1.05
2022-10-12T07:33:51.451Z,1.27
2022-10-12T07:36:21.858Z,1.30
2022-10-12T07:38:50.789Z,0.88
2022-10-12T07:41:19.804Z,0.90
2022-10-12T07:43:48.306Z,0.95
2022-10-12T07:46:16.930Z,1.30
2022-10-12T07:48:49.953Z,0.93
2022-10-12T07:51:19.634Z,1.05
2022-10-12T07:53:48.255Z,1.13
2022-10-12T07:56:17.065Z,1.10
2022-10-12T07:58:54.838Z,1.00
2022-10-12T08:01:26.085Z,1.20
2022-10-12T08:04:00.994Z,1.10
2022-10-12T08:06:32.468Z,1.83
2022-10-12T08:09:02.012Z,1.50
2022-10-12T08:11:30.666Z,1.52
2022-10-12T08:13:59.145Z,1.60
2022-10-12T08:16:27.527Z,1.55
2022-10-12T08:18:56.092Z,1.40
2022-10-12T08:21:24.436Z,1.50
2022-10-12T08:23:53.090Z,1.38
2022-10-12T08:26:21.567Z,1.50
2022-10-12T08:28:50.178Z,1.90
2022-10-12T08:31:19.234Z,1.30
2022-10-12T08:33:47.943Z,1.30
2022-10-12T08:36:16.445Z,1.10
2022-10-12T08:38:45.294Z,1.40
2022-10-12T08:41:32.079Z,1.10
2022-10-12T08:44:24.286Z,1.35
2022-10-12T08:46:59.044Z,1.27
2022-10-12T08:49:32.199Z,1.40
2022-10-12T08:52:06.045Z,0.98
2022-10-12T08:54:40.173Z,1.27
2022-10-12T08:57:17.141Z,0.90
2022-10-12T08:59:47.008Z,0.70
2022-10-12T09:02:39.751Z,1.20
2022-10-12T09:05:18.995Z,0.77
2022-10-12T09:07:52.277Z,0.80
2022-10-12T09:10:34.401Z,0.90
2022-10-12T09:13:13.390Z,0.85
2022-10-12T09:15:55.110Z,0.90
2022-10-12T09:18:40.410Z,0.80
2022-10-12T09:21:21.700Z,0.70
2022-10-12T09:23:50.871Z,0.90
2022-10-12T09:26:36.664Z,0.60
2022-10-12T09:29:33.005Z,0.70
2022-10-12T09:32:13.922Z,0.60
2022-10-12T09:34:42.304Z,0.63
2022-10-12T09:37:25.829Z,0.60
2022-10-12T09:39:54.930Z,0.80
2022-10-12T09:42:24.000Z,0.60
2022-10-12T09:45:15.576Z,0.80
2022-10-12T09:47:44.602Z,0.77
2022-10-12T09:50:13.037Z,0.80
2022-10-12T09:52:46.979Z,0.70
2022-10-12T09:55:20.334Z,0.80
2022-10-12T09:57:59.144Z,0.80
2022-10-12T10:00:32.989Z,1.27
2022-10-12T10:03:02.315Z,0.70
2022-10-12T10:05:35.725Z,0.70
2022-10-12T10:10:54.249Z,0.80
2022-10-12T10:13:25.377Z,0.90
2022-10-12T10:16:05.945Z,0.70
2022-10-12T10:18:45.278Z,0.68
2022-10-12T10:21:16.431Z,1.02
2022-10-12T10:23:58.829Z,0.73
2022-10-12T10:26:29.133Z,0.75
2022-10-12T10:29:37.068Z,0.70
2022-10-12T10:32:30.038Z,0.70
2022-10-12T10:35:13.848Z,0.70
2022-10-12T10:37:56.719Z,0.75
2022-10-12T10:40:29.680Z,0.88
2022-10-12T10:43:05.342Z,0.80
2022-10-12T10:45:49.470Z,1.00
2022-10-12T10:48:20.712Z,0.60
2022-10-12T10:51:01.600Z,0.80
2022-10-12T10:53:43.750Z,0.88
2022-10-12T10:56:33.477Z,0.60
2022-10-12T10:59:26.738Z,0.80
2022-10-12T11:02:03.927Z,0.80
2022-10-12T11:04:40.414Z,0.70
2022-10-12T11:07:39.018Z,0.95
2022-10-12T11:10:35.725Z,0.80
2022-10-12T11:13:14.299Z,0.80
2022-10-12T11:16:09.099Z,0.80
2022-10-12T11:18:47.789Z,0.73
2022-10-12T11:21:43.128Z,0.80
2022-10-12T11:24:31.183Z,0.70
2022-10-12T11:27:31.146Z,0.80
2022-10-12T11:30:09.246Z,0.82
2022-10-12T11:32:46.192Z,0.98
2022-10-12T11:35:37.062Z,0.90
2022-10-12T11:38:14.164Z,0.80
2022-10-12T11:41:19.012Z,0.90
2022-10-12T11:43:54.084Z,0.60
2022-10-12T11:46:33.066Z,0.90
2022-10-12T11:49:07.952Z,0.90
2022-10-12T11:51:36.535Z,0.90
2022-10-12T11:54:19.040Z,0.80
2022-10-12T11:56:52.668Z,0.80
2022-10-12T11:59:29.800Z,1.00
2022-10-12T12:02:14.947Z,0.90
2022-10-12T12:04:46.630Z,0.70
2022-10-12T12:07:49.071Z,1.00
2022-10-12T12:10:31.972Z,0.73
2022-10-12T12:13:19.605Z,0.90
2022-10-12T12:15:53.892Z,0.80
2022-10-12T12:18:29.691Z,0.90
2022-10-12T12:21:11.142Z,0.90
2022-10-12T12:23:54.172Z,0.80
2022-10-12T12:26:28.603Z,0.80
2022-10-12T12:29:24.911Z,0.90
2022-10-12T12:32:01.186Z,0.73
2022-10-12T12:34:30.445Z,0.73
2022-10-12T12:36:59.783Z,1.33
2022-10-12T12:39:34.281Z,1.02
2022-10-12T12:42:08.361Z,1.08
2022-10-12T12:44:39.498Z,0.85
2022-10-12T12:47:43.411Z,0.85
2022-10-12T12:50:03.470Z,0.90
2022-10-12T12:52:36.369Z,0.80
2022-10-12T12:55:30.477Z,0.90
2022-10-12T12:58:24.785Z,0.70
2022-10-12T13:00:58.763Z,1.10
2022-10-12T13:03:36.421Z,0.90
2022-10-12T13:06:16.811Z,0.85
2022-10-12T13:08:53.909Z,0.93
2022-10-12T13:12:05.038Z,0.73
2022-10-12T13:14:55.009Z,1.05
2022-10-12T13:17:53.192Z,0.80
2022-10-12T13:20:27.407Z,0.88
2022-10-12T13:22:59.091Z,0.85
2022-10-12T13:25:35.798Z,0.80
2022-10-12T13:28:08.667Z,0.90
2022-10-12T13:30:48.263Z,0.90
2022-10-12T13:33:32.015Z,0.82
2022-10-12T13:36:09.264Z,0.95
2022-10-12T13:38:41.185Z,0.85
2022-10-12T13:41:12.766Z,0.98
2022-10-12T13:43:50.366Z,0.90
2022-10-12T13:46:43.280Z,0.90
2022-10-12T13:49:22.389Z,0.77
2022-10-12T13:52:02.554Z,0.90
2022-10-12T13:54:38.920Z,0.70
2022-10-12T13:57:19.474Z,0.70
2022-10-12T13:59:53.738Z,1.52
2022-10-12T14:02:31.404Z,1.10
2022-10-12T14:05:02.515Z,1.23
2022-10-12T14:07:37.118Z,0.93
2022-10-12T14:10:14.016Z,1.10
2022-10-12T14:12:43.135Z,0.73
2022-10-12T14:15:14.568Z,0.63
2022-10-12T14:17:48.154Z,1.17
2022-10-12T14:20:39.922Z,1.45
2022-10-12T14:23:20.930Z,0.98
2022-10-12T14:25:57.540Z,1.00
2022-10-12T14:28:31.461Z,1.23
2022-10-12T14:31:00.548Z,1.00
2022-10-12T14:33:30.668Z,0.70
2022-10-12T14:36:24.287Z,0.95
2022-10-12T14:38:55.648Z,0.80
2022-10-12T14:41:41.213Z,0.80
2022-10-12T14:44:17.406Z,0.85
2022-10-12T14:47:07.486Z,0.80
2022-10-12T14:49:46.728Z,1.23
2022-10-12T14:52:23.625Z,1.20
2022-10-12T14:57:32.242Z,0.65
2022-10-12T15:00:00.800Z,1.10
2022-10-12T15:02:31.735Z,0.90
2022-10-12T15:05:01.195Z,0.88
2022-10-12T15:07:35.185Z,1.02
2022-10-12T15:10:04.498Z,0.82
2022-10-12T15:12:33.261Z,0.90
2022-10-12T15:15:03.725Z,0.70
2022-10-12T15:17:32.271Z,0.80
2022-10-12T15:20:01.390Z,0.80
2022-10-12T15:22:30.465Z,0.75
2022-10-12T15:24:58.964Z,0.88
2022-10-12T15:27:27.461Z,0.93
2022-10-12T15:29:56.080Z,1.00
2022-10-12T15:32:24.600Z,0.90
2022-10-12T15:34:53.823Z,0.90
2022-10-12T15:37:21.658Z,0.90
2022-10-12T15:39:50.134Z,1.13
2022-10-12T15:42:18.653Z,1.23
2022-10-12T15:44:46.519Z,0.90
2022-10-12T15:47:15.306Z,0.93
2022-10-12T15:49:44.081Z,1.25
2022-10-12T15:52:13.036Z,1.35
2022-10-12T15:54:43.499Z,1.08
2022-10-12T15:57:15.534Z,0.98
2022-10-12T15:59:44.228Z,0.75
2022-10-12T16:02:14.210Z,0.85
2022-10-12T16:04:45.829Z,1.25
2022-10-12T16:07:13.983Z,0.90
2022-10-12T16:09:42.713Z,1.10
2022-10-12T16:12:11.282Z,0.95
2022-10-12T16:14:39.751Z,1.00
2022-10-12T16:17:08.204Z,0.95
2022-10-12T16:19:36.717Z,1.00
2022-10-12T16:22:06.336Z,0.70
2022-10-12T16:24:34.862Z,0.80
2022-10-12T16:27:03.399Z,0.82
2022-10-12T16:29:31.937Z,0.80
2022-10-12T16:32:00.354Z,1.13
2022-10-12T16:34:32.450Z,0.75
2022-10-12T16:37:01.614Z,0.80
2022-10-12T16:39:30.295Z,0.75
2022-10-12T16:41:58.816Z,0.70
2022-10-12T16:44:27.266Z,0.70
2022-10-12T16:46:55.724Z,0.95
2022-10-12T16:49:25.316Z,0.70
2022-10-12T16:51:53.796Z,0.90
2022-10-12T16:54:24.458Z,0.80
2022-10-12T16:56:53.479Z,1.83
2022-10-12T16:59:21.957Z,1.05
2022-10-12T17:01:50.530Z,0.60
2022-10-12T17:04:19.846Z,0.70
2022-10-12T17:06:48.420Z,0.70
2022-10-12T17:09:17.441Z,0.70
2022-10-12T17:11:45.935Z,0.82
2022-10-12T17:14:18.280Z,0.60
2022-10-12T17:16:49.661Z,0.60
2022-10-12T17:19:29.740Z,0.80
2022-10-12T17:22:02.280Z,0.80
2022-10-12T17:24:32.686Z,0.70
2022-10-12T17:27:01.763Z,0.60
2022-10-12T17:29:31.802Z,0.80
2022-10-12T17:32:00.851Z,0.90
2022-10-12T17:34:41.764Z,0.60
2022-10-12T17:37:14.669Z,0.70
2022-10-12T17:39:45.901Z,0.80
2022-10-12T17:42:14.886Z,0.80
2022-10-12T17:44:43.609Z,0.85
2022-10-12T17:47:12.133Z,0.60
2022-10-12T17:49:40.306Z,1.08
2022-10-12T17:52:08.879Z,0.73
2022-10-12T17:54:37.481Z,1.23
2022-10-12T17:57:06.021Z,0.90
2022-10-12T17:59:34.203Z,0.60
2022-10-12T18:02:02.762Z,0.70
2022-10-12T18:04:30.929Z,0.80
2022-10-12T18:06:59.363Z,0.70
2022-10-12T18:09:27.915Z,0.80
2022-10-12T18:11:56.469Z,0.60
2022-10-12T18:14:25.009Z,0.73
2022-10-12T18:16:53.751Z,0.68
2022-10-12T18:19:22.581Z,0.70
2022-10-12T18:21:51.575Z,0.90
2022-10-12T18:24:21.735Z,0.80
2022-10-12T18:26:50.294Z,0.70
2022-10-12T18:29:18.824Z,0.80
2022-10-12T18:31:47.167Z,0.80
2022-10-12T18:34:15.735Z,0.60
2022-10-12T18:36:44.282Z,0.98
2022-10-12T18:39:12.870Z,0.90
2022-10-12T18:41:41.499Z,0.80
2022-10-12T18:44:12.028Z,0.80
2022-10-12T18:46:40.602Z,0.70
2022-10-12T18:49:11.485Z,0.70
2022-10-12T18:51:42.254Z,0.80
2022-10-12T18:54:18.341Z,0.88
2022-10-12T18:56:47.272Z,0.73
2022-10-12T18:59:19.755Z,0.70
2022-10-12T19:01:48.343Z,0.60
2022-10-12T19:04:16.943Z,0.80
2022-10-12T19:06:45.559Z,1.00
2022-10-12T19:09:15.154Z,0.55
2022-10-12T19:11:43.695Z,0.68
2022-10-12T19:14:15.577Z,0.77
2022-10-12T19:16:45.744Z,0.80
2022-10-12T19:19:20.905Z,0.80
2022-10-12T19:21:53.363Z,0.68
2022-10-12T19:24:23.113Z,0.80
2022-10-12T19:26:51.808Z,0.60
2022-10-12T19:29:20.485Z,0.82
2022-10-12T19:31:51.076Z,0.70
2022-10-12T19:34:21.622Z,0.80
2022-10-12T19:36:50.311Z,0.80
2022-10-12T19:39:21.384Z,0.80
2022-10-12T19:41:50.865Z,0.80
2022-10-12T19:44:20.713Z,0.70
2022-10-12T19:46:50.166Z,0.70
2022-10-12T19:49:19.919Z,0.80
2022-10-12T19:51:49.508Z,0.60
2022-10-12T19:54:18.307Z,0.80
2022-10-12T19:56:46.953Z,0.95
2022-10-12T19:59:15.491Z,0.95
2022-10-12T20:01:49.051Z,0.70
2022-10-12T20:04:17.824Z,0.70
2022-10-12T20:06:46.442Z,0.50
2022-10-12T20:09:14.983Z,0.70
2022-10-12T20:11:43.576Z,0.70
2022-10-12T20:14:12.739Z,0.70
2022-10-12T20:16:41.228Z,0.60
2022-10-12T20:19:09.821Z,0.70
2022-10-12T20:21:38.790Z,0.70
2022-10-12T20:24:11.040Z,0.63
2022-10-12T20:26:40.293Z,0.83
2022-10-12T20:29:08.817Z,0.90
2022-10-12T20:31:37.470Z,0.60
2022-10-12T20:34:06.028Z,0.70
2022-10-12T20:36:34.525Z,0.70
2022-10-12T20:39:03.098Z,0.50
2022-10-12T20:41:31.754Z,0.60
2022-10-12T20:44:02.133Z,0.60
2022-10-12T20:46:31.459Z,0.73
2022-10-12T20:49:02.715Z,0.80
2022-10-12T20:51:40.460Z,0.68
2022-10-12T20:54:17.023Z,1.02
2022-10-12T20:56:46.309Z,0.70
2022-10-12T20:59:14.696Z,0.70
2022-10-12T21:01:43.375Z,0.63
2022-10-12T21:04:11.873Z,0.93
2022-10-12T21:06:40.843Z,0.70
2022-10-12T21:09:10.692Z,0.68
2022-10-12T21:11:39.809Z,0.70
2022-10-12T21:14:08.352Z,0.63
2022-10-12T21:16:36.888Z,0.65
2022-10-12T21:19:05.628Z,0.50
2022-10-12T21:21:34.475Z,0.90
2022-10-12T21:24:03.400Z,0.60
2022-10-12T21:26:32.778Z,0.70
2022-10-12T21:29:01.676Z,0.73
2022-10-12T21:31:32.550Z,0.90
2022-10-12T21:34:03.173Z,0.70
2022-10-12T21:36:32.914Z,0.63
2022-10-12T21:39:01.385Z,1.00
2022-10-12T21:41:31.725Z,0.70
2022-10-12T21:44:00.408Z,0.70
2022-10-12T21:46:31.728Z,1.20
2022-10-12T21:49:02.029Z,0.80
2022-10-12T21:51:32.736Z,0.95
2022-10-12T21:54:01.258Z,0.77
2022-10-12T21:56:32.206Z,0.80
2022-10-12T21:59:02.179Z,0.75
2022-10-12T22:01:41.765Z,1.00
2022-10-12T22:04:15.396Z,0.70
2022-10-12T22:06:44.807Z,0.70
2022-10-12T22:09:17.541Z,0.73
2022-10-12T22:11:46.103Z,0.75
2022-10-12T22:14:17.793Z,0.70
2022-10-12T22:16:47.038Z,0.70
2022-10-12T22:19:20.847Z,0.80
2022-10-12T22:21:52.026Z,0.75
2022-10-12T22:24:21.232Z,0.80
2022-10-12T22:26:49.995Z,0.60
2022-10-12T22:29:18.531Z,0.80
2022-10-12T22:31:47.655Z,0.70
2022-10-12T22:34:16.201Z,0.80
2022-10-12T22:36:45.409Z,0.90
2022-10-12T22:39:13.905Z,0.73
2022-10-12T22:41:42.458Z,1.50
2022-10-12T22:44:11.004Z,1.42
2022-10-12T22:46:39.587Z,1.15
2022-10-12T22:49:07.997Z,1.15
2022-10-12T22:51:40.445Z,0.80
2022-10-12T22:54:09.740Z,1.10
2022-10-12T22:56:38.312Z,0.80
2022-10-12T22:59:09.708Z,0.90
2022-10-12T23:01:38.661Z,2.42
2022-10-12T23:04:07.305Z,0.75
2022-10-12T23:06:36.134Z,0.85
2022-10-12T23:09:05.101Z,0.70
2022-10-12T23:11:33.637Z,0.93
2022-10-12T23:14:02.234Z,2.85
2022-10-12T23:16:32.652Z,1.55
2022-10-12T23:19:07.019Z,1.42
2022-10-12T23:21:36.806Z,1.08
2022-10-12T23:24:08.572Z,0.90
2022-10-12T23:26:37.164Z,0.80
2022-10-12T23:29:05.736Z,1.00
2022-10-12T23:31:34.920Z,1.15
2022-10-12T23:34:07.233Z,0.90
2022-10-12T23:36:36.162Z,0.70
2022-10-12T23:39:06.662Z,1.02
2022-10-12T23:41:35.404Z,1.40
2022-10-12T23:44:03.840Z,0.90
2022-10-12T23:46:32.527Z,0.80
2022-10-12T23:49:01.356Z,0.90
2022-10-12T23:51:29.937Z,0.70
2022-10-12T23:53:58.608Z,1.13
2022-10-12T23:56:27.223Z,1.90
2022-10-12T23:58:55.745Z,1.20
